Time;durP1;ratioP1;P1;durP2;ratioP2;P2;SDS_P1;SDS_P2;PMS_P1;PMS_P2;Temp;Humidity;BMP_temperature;BMP_pressure;BME280_temperature;BME280_humidity;BME280_pressure;Samples;Min_cycle;Max_cycle;Signal;HPM_P1;HPM_P2
2023/09/27 00:00:31;;;;;;;2.13;1.73;;;23.70;52.70;;;;;;5038184;28;20032;-65
2023/09/27 00:03:01;;;;;;;2.72;1.92;;;23.70;52.70;;;;;;5040241;28;20459;-63
2023/09/27 00:05:27;;;;;;;2.15;1.85;;;23.70;52.70;;;;;;5036648;28;20085;-59
2023/09/27 00:07:53;;;;;;;2.38;1.75;;;23.70;52.70;;;;;;5041159;28;20035;-62
2023/09/27 00:10:19;;;;;;;2.60;2.13;;;23.70;52.80;;;;;;5016213;28;20057;-60
2023/09/27 00:12:45;;;;;;;2.47;1.92;;;23.70;52.80;;;;;;5023408;28;20123;-62
2023/09/27 00:15:12;;;;;;;2.47;1.95;;;23.70;52.80;;;;;;5040029;28;20108;-64
2023/09/27 00:17:39;;;;;;;3.10;2.20;;;23.70;52.80;;;;;;5019180;28;20317;-64
2023/09/27 00:20:09;;;;;;;2.45;1.60;;;23.70;52.80;;;;;;5028837;28;20116;-65
2023/09/27 00:22:36;;;;;;;2.05;1.70;;;23.70;52.80;;;;;;5038142;28;20025;-66
2023/09/27 00:25:04;;;;;;;2.22;1.73;;;23.70;52.80;;;;;;5048287;28;20025;-61
2023/09/27 00:27:31;;;;;;;2.60;2.05;;;23.70;52.80;;;;;;5042843;28;20025;-62
2023/09/27 00:29:58;;;;;;;2.25;1.83;;;23.70;52.80;;;;;;5027228;28;20119;-63
2023/09/27 00:32:24;;;;;;;2.50;1.73;;;23.60;52.80;;;;;;5025561;28;20021;-63
2023/09/27 00:34:49;;;;;;;2.50;1.80;;;23.60;52.80;;;;;;5026735;28;20148;-63
2023/09/27 00:37:15;;;;;;;2.85;2.00;;;23.70;52.80;;;;;;5018137;28;20116;-63
2023/09/27 00:39:41;;;;;;;1.88;1.50;;;23.60;52.80;;;;;;5025204;28;20409;-63
2023/09/27 00:42:07;;;;;;;3.70;2.00;;;23.60;52.80;;;;;;5022357;28;20069;-65
2023/09/27 00:44:34;;;;;;;2.65;1.90;;;23.60;52.80;;;;;;5008821;28;20108;-63
2023/09/27 00:47:03;;;;;;;3.15;1.90;;;23.60;52.80;;;;;;5016442;28;20136;-63
2023/09/27 00:49:29;;;;;;;2.85;1.80;;;23.60;52.80;;;;;;5021305;28;20091;-61
2023/09/27 00:51:56;;;;;;;2.92;2.08;;;23.60;52.80;;;;;;5022973;28;20379;-63
2023/09/27 00:54:22;;;;;;;3.13;2.22;;;23.60;52.80;;;;;;5018685;28;20022;-63
2023/09/27 00:56:51;;;;;;;3.05;2.20;;;23.60;52.80;;;;;;5023271;28;20048;-62
2023/09/27 00:59:18;;;;;;;2.08;1.83;;;23.60;52.80;;;;;;5009632;28;20400;-64
2023/09/27 01:01:46;;;;;;;3.28;1.85;;;23.60;52.80;;;;;;5021024;28;20029;-63
2023/09/27 01:04:13;;;;;;;2.13;1.65;;;23.60;52.80;;;;;;5021937;28;20120;-64
2023/09/27 01:06:43;;;;;;;4.22;1.98;;;23.60;52.80;;;;;;5022464;28;20086;-62
2023/09/27 01:09:11;;;;;;;3.80;1.80;;;23.60;52.80;;;;;;5012807;28;20029;-64
2023/09/27 01:11:38;;;;;;;3.47;1.90;;;23.60;52.70;;;;;;5017325;28;20112;-64
2023/09/27 01:14:04;;;;;;;2.25;1.67;;;23.60;52.70;;;;;;5020116;28;20034;-61
2023/09/27 01:16:31;;;;;;;2.65;2.03;;;23.60;52.70;;;;;;5012804;28;20025;-64
2023/09/27 01:19:03;;;;;;;3.20;2.03;;;23.60;52.70;;;;;;5022532;28;20425;-63
2023/09/27 01:21:31;;;;;;;2.75;1.80;;;23.70;52.90;;;;;;5019355;28;20072;-63
2023/09/27 01:23:57;;;;;;;2.53;1.85;;;23.60;52.70;;;;;;5027503;28;20109;-65
2023/09/27 01:26:23;;;;;;;3.00;1.90;;;23.60;52.70;;;;;;5017862;28;20107;-65
2023/09/27 01:28:50;;;;;;;2.28;1.90;;;23.60;52.70;;;;;;5016861;28;20459;-65
2023/09/27 01:31:16;;;;;;;2.80;2.13;;;23.60;52.70;;;;;;5021668;28;20553;-62
2023/09/27 01:33:42;;;;;;;2.75;1.98;;;23.60;52.70;;;;;;5042998;28;20050;-61
2023/09/27 01:36:08;;;;;;;3.08;1.98;;;23.60;52.70;;;;;;5022293;28;20467;-64
2023/09/27 01:38:34;;;;;;;3.30;2.00;;;23.60;52.70;;;;;;5018985;28;20390;-59
2023/09/27 01:41:00;;;;;;;2.97;2.05;;;23.60;52.70;;;;;;5019159;28;20058;-62
2023/09/27 01:43:26;;;;;;;2.72;1.90;;;23.60;52.70;;;;;;5020169;28;20091;-63
2023/09/27 01:45:52;;;;;;;2.72;2.05;;;23.60;52.70;;;;;;5020039;28;20424;-64
2023/09/27 01:48:20;;;;;;;2.35;1.80;;;23.60;52.70;;;;;;5010271;28;20053;-61
2023/09/27 01:50:46;;;;;;;3.35;2.20;;;23.60;52.70;;;;;;5022407;28;21202;-65
2023/09/27 01:53:12;;;;;;;3.80;2.05;;;23.60;52.70;;;;;;5013312;28;20120;-65
2023/09/27 01:55:38;;;;;;;2.95;1.90;;;23.60;53.30;;;;;;5017515;28;20041;-62
2023/09/27 01:58:04;;;;;;;2.45;1.83;;;23.60;52.70;;;;;;5015902;28;20038;-64
2023/09/27 02:00:31;;;;;;;2.38;1.85;;;23.50;52.70;;;;;;5015092;28;20033;-63
2023/09/27 02:02:58;;;;;;;2.63;1.88;;;23.60;52.70;;;;;;5016488;28;20048;-64
2023/09/27 02:05:28;;;;;;;2.90;1.83;;;23.60;52.70;;;;;;5019477;28;20420;-63
2023/09/27 02:07:54;;;;;;;3.00;1.90;;;23.50;52.70;;;;;;5018386;28;20493;-65
2023/09/27 02:10:21;;;;;;;2.72;2.00;;;23.50;52.70;;;;;;5019940;28;20045;-64
2023/09/27 02:12:47;;;;;;;2.58;1.70;;;23.50;52.70;;;;;;5015595;28;20115;-64
2023/09/27 02:15:14;;;;;;;3.25;1.67;;;23.50;52.70;;;;;;5026610;28;20519;-64
2023/09/27 02:17:42;;;;;;;2.63;1.80;;;23.50;52.70;;;;;;5024851;28;20029;-63
2023/09/27 02:20:18;;;;;;;2.88;1.70;;;23.50;52.70;;;;;;5012857;28;20022;-61
2023/09/27 02:22:47;;;;;;;2.17;1.65;;;23.50;52.70;;;;;;5016202;28;20045;-64
2023/09/27 02:25:13;;;;;;;3.28;1.83;;;23.50;52.70;;;;;;5016779;28;20129;-62
2023/09/27 02:27:40;;;;;;;2.40;1.70;;;23.50;52.70;;;;;;4997764;28;20037;-62
2023/09/27 02:30:11;;;;;;;2.13;1.85;;;23.50;52.70;;;;;;5023591;28;20073;-63
2023/09/27 02:32:41;;;;;;;2.25;1.70;;;23.50;52.70;;;;;;5024069;28;20116;-64
2023/09/27 02:35:09;;;;;;;2.10;1.65;;;23.50;52.80;;;;;;5015944;28;20036;-60
2023/09/27 02:37:36;;;;;;;2.60;1.75;;;23.50;52.80;;;;;;5014334;28;20113;-61
2023/09/27 02:40:11;;;;;;;2.10;1.60;;;23.50;52.80;;;;;;5025984;28;20039;-61
2023/09/27 02:42:49;;;;;;;2.78;1.90;;;23.50;52.70;;;;;;5024152;28;20421;-60
2023/09/27 02:45:15;;;;;;;2.30;1.90;;;23.50;52.70;;;;;;5042246;28;20044;-63
2023/09/27 02:47:45;;;;;;;2.03;1.80;;;23.50;52.70;;;;;;5021319;28;20473;-62
2023/09/27 02:50:13;;;;;;;2.22;1.75;;;23.50;52.70;;;;;;5025215;28;20066;-63
2023/09/27 02:52:39;;;;;;;2.60;1.85;;;23.40;52.70;;;;;;5021598;28;20028;-62
2023/09/27 02:55:08;;;;;;;2.60;1.80;;;23.50;52.70;;;;;;5037419;28;20029;-63
2023/09/27 02:57:35;;;;;;;2.17;1.75;;;23.50;52.70;;;;;;5025482;28;20031;-62
2023/09/27 03:00:00;;;;;;;2.38;1.75;;;23.50;52.70;;;;;;5037747;28;20044;-62
2023/09/27 03:02:26;;;;;;;2.85;2.10;;;23.50;52.70;;;;;;5042685;28;20020;-62
2023/09/27 03:04:52;;;;;;;2.58;1.95;;;23.40;52.70;;;;;;5025387;28;20175;-63
2023/09/27 03:07:18;;;;;;;2.42;1.98;;;23.50;52.70;;;;;;5019676;28;20040;-62
2023/09/27 03:09:44;;;;;;;3.63;2.05;;;23.50;52.70;;;;;;5024264;28;20415;-64
2023/09/27 03:12:11;;;;;;;2.72;2.00;;;23.50;52.70;;;;;;5027204;28;20021;-61
2023/09/27 03:14:37;;;;;;;2.42;1.90;;;23.40;52.70;;;;;;5026123;28;20420;-62
2023/09/27 03:17:03;;;;;;;2.35;2.15;;;23.40;52.70;;;;;;5020744;28;20048;-63
2023/09/27 03:19:29;;;;;;;2.17;1.65;;;23.40;52.70;;;;;;5027313;28;21505;-63
2023/09/27 03:21:56;;;;;;;2.30;1.75;;;23.40;52.70;;;;;;5040882;28;20021;-60
2023/09/27 03:24:22;;;;;;;3.50;1.90;;;23.40;52.70;;;;;;5041148;28;20108;-64
2023/09/27 03:26:49;;;;;;;2.17;1.80;;;23.40;52.70;;;;;;5025121;28;20048;-62
2023/09/27 03:29:15;;;;;;;2.78;1.83;;;23.40;52.70;;;;;;5020957;28;20037;-62
2023/09/27 03:31:41;;;;;;;2.80;2.08;;;23.40;52.70;;;;;;5022399;28;20031;-62
2023/09/27 03:34:07;;;;;;;3.88;2.03;;;23.40;52.70;;;;;;5022801;28;20191;-64
2023/09/27 03:36:34;;;;;;;2.63;1.90;;;23.40;52.70;;;;;;5018515;28;20037;-62
2023/09/27 03:39:00;;;;;;;3.03;2.00;;;23.40;52.70;;;;;;5020817;28;20040;-63
2023/09/27 03:41:26;;;;;;;2.75;2.13;;;23.40;52.80;;;;;;5021591;28;20037;-66
2023/09/27 03:43:52;;;;;;;2.60;2.08;;;23.40;52.70;;;;;;5018359;28;20033;-61
2023/09/27 03:46:19;;;;;;;4.57;2.10;;;23.40;52.70;;;;;;5020250;28;20060;-62
2023/09/27 03:48:45;;;;;;;2.55;1.83;;;23.40;52.70;;;;;;5020092;28;21203;-62
2023/09/27 03:51:10;;;;;;;2.60;1.95;;;23.40;52.70;;;;;;5020252;28;20029;-60
2023/09/27 03:53:36;;;;;;;2.67;1.88;;;23.40;52.70;;;;;;5014005;28;20121;-62
2023/09/27 03:56:02;;;;;;;2.20;1.63;;;23.40;52.70;;;;;;5019748;28;20118;-62
2023/09/27 03:58:28;;;;;;;2.78;1.92;;;23.30;52.60;;;;;;5016123;28;21628;-62
2023/09/27 04:00:54;;;;;;;2.65;2.00;;;23.40;52.70;;;;;;5019857;28;20155;-61
2023/09/27 04:03:20;;;;;;;2.95;1.90;;;23.40;52.70;;;;;;5023173;28;20412;-63
2023/09/27 04:05:46;;;;;;;2.10;1.80;;;23.30;52.60;;;;;;5016267;28;20057;-64
2023/09/27 04:08:12;;;;;;;2.75;1.95;;;23.30;52.60;;;;;;5019408;28;20052;-64
2023/09/27 04:10:38;;;;;;;2.40;1.80;;;23.30;52.60;;;;;;5023388;28;20425;-60
2023/09/27 04:13:05;;;;;;;2.63;1.85;;;23.30;52.60;;;;;;5024695;28;20113;-63
2023/09/27 04:15:32;;;;;;;2.35;1.73;;;23.40;52.70;;;;;;5023217;28;20090;-63
2023/09/27 04:17:58;;;;;;;2.13;1.88;;;23.30;52.60;;;;;;5021153;28;20128;-63
2023/09/27 04:20:25;;;;;;;2.45;1.75;;;23.30;52.60;;;;;;5022953;28;20108;-62
2023/09/27 04:22:51;;;;;;;2.15;1.80;;;23.30;52.60;;;;;;5025292;28;20033;-59
2023/09/27 04:25:18;;;;;;;2.28;1.88;;;23.30;52.60;;;;;;5023244;28;20496;-63
2023/09/27 04:27:46;;;;;;;2.88;1.92;;;23.30;52.50;;;;;;5022961;28;20116;-61
2023/09/27 04:30:19;;;;;;;2.17;1.75;;;23.30;52.50;;;;;;5023482;28;20025;-62
2023/09/27 04:32:53;;;;;;;2.22;1.92;;;23.30;52.50;;;;;;5027027;28;20025;-64
2023/09/27 04:35:20;;;;;;;2.35;1.73;;;23.30;52.50;;;;;;5037575;28;20021;-62
2023/09/27 04:37:46;;;;;;;2.72;1.92;;;23.30;52.50;;;;;;5044697;28;20054;-63
2023/09/27 04:40:13;;;;;;;2.90;2.00;;;23.30;52.50;;;;;;5042934;28;20056;-62
2023/09/27 04:42:43;;;;;;;3.08;1.80;;;23.30;52.50;;;;;;5045180;28;20042;-64
2023/09/27 04:45:13;;;;;;;2.97;1.80;;;23.30;52.60;;;;;;5043869;28;20033;-64
2023/09/27 04:47:40;;;;;;;2.40;1.98;;;23.30;52.60;;;;;;5043930;28;20046;-60
2023/09/27 04:50:10;;;;;;;3.28;2.00;;;23.30;52.60;;;;;;5041696;28;20110;-63
2023/09/27 04:52:39;;;;;;;2.55;2.05;;;23.30;52.50;;;;;;5044840;28;20117;-62
2023/09/27 04:55:07;;;;;;;2.00;1.77;;;23.30;52.60;;;;;;5040562;28;20040;-63
2023/09/27 04:57:33;;;;;;;2.53;2.00;;;23.30;52.60;;;;;;5045328;28;20190;-64
2023/09/27 04:59:59;;;;;;;2.72;2.03;;;23.30;52.60;;;;;;5041826;28;20828;-64
2023/09/27 05:02:27;;;;;;;2.90;2.10;;;23.30;52.60;;;;;;5044958;28;20324;-62
2023/09/27 05:04:53;;;;;;;2.47;1.70;;;23.20;52.50;;;;;;5043097;28;20047;-61
2023/09/27 05:07:19;;;;;;;2.25;1.73;;;23.20;52.50;;;;;;5042064;28;20409;-63
2023/09/27 05:09:46;;;;;;;2.53;1.92;;;23.30;52.60;;;;;;5041350;28;20025;-61
2023/09/27 05:12:13;;;;;;;1.95;1.75;;;23.30;52.60;;;;;;5043487;28;20539;-63
2023/09/27 05:14:39;;;;;;;2.88;1.92;;;23.30;52.60;;;;;;5021916;28;20648;-60
2023/09/27 05:17:05;;;;;;;2.63;2.03;;;23.20;52.60;;;;;;5047268;28;20051;-61
2023/09/27 05:19:31;;;;;;;2.47;1.80;;;23.20;52.60;;;;;;5028603;28;20036;-62
2023/09/27 05:21:57;;;;;;;2.63;2.08;;;23.30;52.60;;;;;;5046553;28;20441;-61
2023/09/27 05:24:23;;;;;;;3.53;1.83;;;23.30;52.60;;;;;;5046433;28;20110;-60
2023/09/27 05:26:49;;;;;;;2.42;1.77;;;23.20;52.50;;;;;;5042825;28;20460;-62
2023/09/27 05:29:15;;;;;;;3.22;2.15;;;23.20;52.50;;;;;;5041377;28;20241;-62
2023/09/27 05:31:41;;;;;;;2.80;1.90;;;23.20;52.50;;;;;;5025413;28;20029;-61
2023/09/27 05:34:07;;;;;;;3.05;1.98;;;23.20;52.40;;;;;;5039073;28;20053;-64
2023/09/27 05:36:34;;;;;;;2.42;1.85;;;23.20;52.40;;;;;;5044693;28;20036;-60
2023/09/27 05:39:07;;;;;;;2.20;1.77;;;23.20;52.40;;;;;;5045410;28;20124;-61
2023/09/27 05:41:33;;;;;;;2.90;2.10;;;23.20;52.40;;;;;;5021860;28;20021;-62
2023/09/27 05:43:59;;;;;;;2.28;1.67;;;23.20;52.40;;;;;;5041226;28;20106;-63
2023/09/27 05:46:28;;;;;;;3.05;2.15;;;23.20;52.50;;;;;;5018999;28;20029;-61
2023/09/27 05:48:54;;;;;;;2.67;1.83;;;23.20;52.30;;;;;;5040996;28;20025;-63
2023/09/27 05:51:21;;;;;;;3.35;2.15;;;23.20;52.30;;;;;;5025818;28;20021;-64
2023/09/27 05:53:51;;;;;;;2.33;1.77;;;23.20;52.30;;;;;;5038590;28;20062;-62
2023/09/27 05:56:17;;;;;;;2.65;2.00;;;23.20;52.30;;;;;;5036745;28;20122;-64
2023/09/27 05:58:43;;;;;;;2.72;1.88;;;23.20;52.30;;;;;;5026097;28;20037;-63
2023/09/27 06:01:10;;;;;;;3.20;1.65;;;23.20;52.30;;;;;;5043287;28;20356;-60
2023/09/27 06:03:37;;;;;;;2.92;2.33;;;23.20;52.40;;;;;;5025267;28;20036;-62
2023/09/27 06:06:03;;;;;;;2.35;1.92;;;23.20;52.40;;;;;;5040023;28;20460;-62
2023/09/27 06:08:29;;;;;;;2.40;2.17;;;23.20;52.30;;;;;;5039377;28;20071;-63
2023/09/27 06:10:56;;;;;;;4.05;1.90;;;23.20;52.30;;;;;;5043650;28;20134;-62
2023/09/27 06:13:23;;;;;;;3.25;1.98;;;23.20;52.40;;;;;;5043322;28;20029;-63
2023/09/27 06:15:49;;;;;;;2.28;1.83;;;23.20;52.40;;;;;;5020326;28;20121;-62
2023/09/27 06:18:15;;;;;;;2.58;1.77;;;23.20;52.40;;;;;;5018207;28;20559;-63
2023/09/27 06:20:41;;;;;;;2.35;2.10;;;23.20;52.50;;;;;;5044115;28;20025;-61
2023/09/27 06:23:09;;;;;;;3.13;1.75;;;23.20;52.50;;;;;;5030693;28;20025;-62
2023/09/27 06:25:35;;;;;;;2.65;1.92;;;23.20;52.50;;;;;;5048026;28;20129;-60
2023/09/27 06:28:02;;;;;;;2.42;1.83;;;23.20;52.50;;;;;;5047546;28;20549;-60
2023/09/27 06:30:30;;;;;;;3.13;2.20;;;23.20;52.50;;;;;;5046136;28;20489;-62
2023/09/27 06:32:57;;;;;;;2.83;1.90;;;23.20;52.50;;;;;;5045992;28;20470;-60
2023/09/27 06:35:24;;;;;;;2.15;1.77;;;23.20;52.50;;;;;;5046447;28;20135;-63
2023/09/27 06:37:50;;;;;;;2.47;2.03;;;23.20;52.50;;;;;;5046146;28;20103;-62
2023/09/27 06:40:19;;;;;;;2.10;1.63;;;23.20;52.50;;;;;;5048494;28;20039;-60
2023/09/27 06:42:46;;;;;;;2.25;1.83;;;23.20;52.50;;;;;;5047722;28;20312;-60
2023/09/27 06:45:13;;;;;;;3.50;2.35;;;23.20;52.60;;;;;;5046518;28;20349;-60
2023/09/27 06:47:44;;;;;;;2.45;1.80;;;23.20;52.50;;;;;;5047606;28;20048;-62
2023/09/27 06:50:11;;;;;;;5.82;2.08;;;23.20;52.60;;;;;;5047503;28;20033;-61
2023/09/27 06:52:39;;;;;;;3.30;2.10;;;23.20;52.60;;;;;;5022550;28;20033;-62
2023/09/27 06:55:19;;;;;;;2.47;1.92;;;23.20;52.70;;;;;;5020179;28;20033;-61
2023/09/27 06:57:46;;;;;;;2.58;1.90;;;23.20;52.70;;;;;;5021346;28;21182;-63
2023/09/27 07:00:18;;;;;;;2.40;1.70;;;23.20;52.80;;;;;;5038256;28;21671;-60
2023/09/27 07:02:48;;;;;;;2.30;2.00;;;23.20;52.80;;;;;;5041849;28;20128;-61
2023/09/27 07:05:16;;;;;;;2.72;1.80;;;23.20;52.90;;;;;;5042436;28;20058;-61
2023/09/27 07:07:42;;;;;;;2.72;2.08;;;23.20;52.90;;;;;;5036428;28;20037;-60
2023/09/27 07:10:09;;;;;;;2.50;2.05;;;23.20;53.00;;;;;;5022361;28;20039;-63
2023/09/27 07:12:35;;;;;;;2.35;1.80;;;23.20;53.00;;;;;;5021295;28;20021;-60
2023/09/27 07:15:09;;;;;;;1.92;1.67;;;23.30;53.00;;;;;;5042075;28;20446;-64
2023/09/27 07:17:35;;;;;;;2.60;2.03;;;23.20;53.00;;;;;;5038603;28;20069;-59
2023/09/27 07:20:09;;;;;;;3.42;2.03;;;23.30;53.00;;;;;;5045554;28;21410;-58
2023/09/27 07:22:36;;;;;;;2.97;2.13;;;23.30;53.20;;;;;;5048499;28;20036;-57
2023/09/27 07:25:03;;;;;;;2.65;2.03;;;23.30;53.20;;;;;;5028551;28;20025;-59
2023/09/27 07:27:29;;;;;;;3.03;2.33;;;23.20;53.30;;;;;;5047634;28;20112;-59
2023/09/27 07:29:55;;;;;;;2.55;2.00;;;23.30;53.40;;;;;;5044315;28;20136;-58
2023/09/27 07:32:21;;;;;;;3.13;2.33;;;23.30;53.40;;;;;;5040989;28;20446;-60
2023/09/27 07:34:47;;;;;;;3.72;2.47;;;23.30;53.50;;;;;;5045902;28;20060;-63
2023/09/27 07:37:16;;;;;;;2.40;2.03;;;23.30;53.60;;;;;;5026542;28;20025;-60
2023/09/27 07:39:42;;;;;;;2.40;2.08;;;23.30;53.50;;;;;;5039508;28;20085;-63
2023/09/27 07:42:08;;;;;;;2.20;2.00;;;23.30;53.50;;;;;;5045477;28;20032;-60
2023/09/27 07:44:34;;;;;;;2.40;2.13;;;23.30;53.40;;;;;;5046604;28;20025;-61
2023/09/27 07:47:00;;;;;;;3.25;2.15;;;23.30;53.40;;;;;;5040414;28;20132;-61
2023/09/27 07:49:26;;;;;;;3.55;2.00;;;23.30;53.40;;;;;;5049655;28;20107;-62
2023/09/27 07:51:52;;;;;;;3.78;2.00;;;23.40;53.40;;;;;;5048369;28;20048;-61
2023/09/27 07:54:18;;;;;;;2.85;1.75;;;23.40;53.40;;;;;;5043273;28;20029;-62
2023/09/27 07:56:45;;;;;;;2.70;2.10;;;23.30;53.30;;;;;;5018295;28;20030;-60
2023/09/27 07:59:12;;;;;;;3.00;2.15;;;23.30;53.30;;;;;;5040605;28;20121;-63
2023/09/27 08:01:38;;;;;;;2.88;1.98;;;23.30;53.30;;;;;;5021005;28;20396;-62
2023/09/27 08:04:12;;;;;;;3.25;2.30;;;23.30;53.30;;;;;;5026365;28;20028;-61
2023/09/27 08:06:39;;;;;;;3.45;2.42;;;23.40;53.50;;;;;;5037917;28;20105;-62
2023/09/27 08:09:08;;;;;;;4.35;2.25;;;23.40;53.50;;;;;;5042230;28;20408;-62
2023/09/27 08:11:34;;;;;;;2.55;2.20;;;23.40;53.50;;;;;;5039243;28;20025;-63
2023/09/27 08:14:00;;;;;;;2.65;2.15;;;23.40;53.60;;;;;;5043927;28;20039;-61
2023/09/27 08:16:26;;;;;;;3.78;2.35;;;23.40;53.60;;;;;;5043553;28;20093;-62
2023/09/27 08:18:52;;;;;;;3.33;2.20;;;23.40;53.60;;;;;;5046180;28;20043;-62
2023/09/27 08:21:18;;;;;;;2.72;2.05;;;23.40;53.60;;;;;;5051253;28;20102;-63
2023/09/27 08:23:44;;;;;;;3.78;2.13;;;23.40;53.60;;;;;;5051320;28;20081;-63
2023/09/27 08:26:13;;;;;;;2.78;1.98;;;23.40;53.70;;;;;;5033016;28;20044;-61
2023/09/27 08:28:40;;;;;;;3.58;2.05;;;23.40;53.70;;;;;;5032212;28;20044;-63
2023/09/27 08:31:06;;;;;;;2.80;1.95;;;23.40;53.70;;;;;;5045228;28;20032;-63
2023/09/27 08:33:33;;;;;;;4.28;2.40;;;23.40;53.70;;;;;;5040030;28;20155;-61
2023/09/27 08:35:58;;;;;;;3.00;2.33;;;23.40;53.70;;;;;;5039433;28;20044;-63
2023/09/27 08:38:24;;;;;;;4.45;2.35;;;23.40;53.70;;;;;;5042925;28;20115;-61
2023/09/27 08:40:50;;;;;;;3.08;2.00;;;23.50;53.80;;;;;;5042571;28;20415;-61
2023/09/27 08:43:17;;;;;;;2.78;2.10;;;23.40;53.70;;;;;;5043496;28;20493;-63
2023/09/27 08:45:45;;;;;;;4.05;2.38;;;23.40;53.80;;;;;;5044972;28;20037;-61
2023/09/27 08:48:16;;;;;;;3.28;2.35;;;23.40;53.80;;;;;;5049673;28;20056;-63
2023/09/27 08:50:43;;;;;;;3.00;2.38;;;23.40;53.80;;;;;;5045961;28;20040;-61
2023/09/27 08:53:10;;;;;;;2.90;2.30;;;23.40;53.80;;;;;;5022514;28;20025;-60
2023/09/27 08:55:40;;;;;;;4.22;2.58;;;23.50;53.80;;;;;;5035085;28;20064;-63
2023/09/27 08:58:10;;;;;;;3.50;2.35;;;23.50;53.80;;;;;;5048614;28;20095;-62
2023/09/27 09:00:36;;;;;;;3.72;2.17;;;23.50;53.90;;;;;;5017116;28;20089;-62
2023/09/27 09:03:04;;;;;;;3.20;2.20;;;23.50;53.90;;;;;;5041875;28;20097;-60
2023/09/27 09:05:30;;;;;;;3.33;2.38;;;23.50;53.80;;;;;;5025068;28;20141;-63
2023/09/27 09:07:57;;;;;;;3.05;2.40;;;23.50;53.90;;;;;;5045613;28;20309;-62
2023/09/27 09:10:23;;;;;;;3.67;2.55;;;23.50;53.80;;;;;;5046389;28;20032;-61
2023/09/27 09:12:50;;;;;;;3.22;2.33;;;23.50;53.80;;;;;;5044363;28;20044;-60
2023/09/27 09:15:40;;;;;;;3.45;2.40;;;23.50;53.80;;;;;;5018694;28;20137;-61
2023/09/27 09:18:11;;;;;;;3.22;2.28;;;23.60;53.90;;;;;;5042712;28;20170;-61
2023/09/27 09:20:54;;;;;;;3.95;2.42;;;23.50;53.90;;;;;;5042287;28;20033;-62
2023/09/27 09:23:36;;;;;;;3.10;2.05;;;23.60;54.00;;;;;;5046602;28;20021;-61
2023/09/27 09:26:09;;;;;;;2.60;2.00;;;23.60;54.00;;;;;;5044126;28;20409;-61
2023/09/27 09:28:56;;;;;;;5.38;2.53;;;23.60;54.10;;;;;;5041397;28;20037;-62
2023/09/27 09:31:23;;;;;;;3.30;2.00;;;23.60;54.30;;;;;;5043751;28;20028;-62
2023/09/27 09:34:03;;;;;;;2.90;2.20;;;23.60;54.40;;;;;;5020941;28;20082;-63
2023/09/27 09:36:30;;;;;;;2.88;2.50;;;23.60;54.40;;;;;;5048599;28;20352;-61
2023/09/27 09:39:17;;;;;;;2.78;2.17;;;23.60;54.40;;;;;;5047541;28;20409;-59
2023/09/27 09:41:48;;;;;;;3.63;1.88;;;23.70;54.50;;;;;;5027092;28;20025;-62
2023/09/27 09:44:25;;;;;;;4.43;1.90;;;23.70;54.60;;;;;;5050632;28;20383;-63
2023/09/27 09:46:56;;;;;;;2.30;1.90;;;23.70;54.60;;;;;;5053620;28;20044;-61
2023/09/27 09:49:22;;;;;;;3.15;1.77;;;23.70;54.60;;;;;;5053579;28;20037;-62
2023/09/27 09:51:50;;;;;;;3.25;2.22;;;23.70;54.60;;;;;;5035689;28;20086;-61
2023/09/27 09:54:28;;;;;;;3.08;2.33;;;23.70;54.50;;;;;;5052227;28;20025;-63
2023/09/27 09:56:57;;;;;;;3.30;2.00;;;23.70;54.50;;;;;;5053101;28;20051;-62
2023/09/27 09:59:32;;;;;;;3.47;2.15;;;23.80;54.60;;;;;;5051689;28;20391;-63
2023/09/27 10:02:04;;;;;;;2.88;1.85;;;23.80;54.50;;;;;;5048934;28;20072;-61
2023/09/27 10:04:32;;;;;;;2.67;2.03;;;23.80;54.50;;;;;;5035927;28;20098;-62
2023/09/27 10:06:59;;;;;;;3.50;2.20;;;23.80;54.60;;;;;;5034315;28;20167;-63
2023/09/27 10:09:28;;;;;;;3.20;1.92;;;23.80;54.50;;;;;;5052990;28;20029;-62
2023/09/27 10:11:56;;;;;;;2.40;1.75;;;23.80;54.50;;;;;;5052274;28;20064;-64
2023/09/27 10:14:25;;;;;;;2.97;1.83;;;23.80;54.50;;;;;;5036102;28;20036;-62
2023/09/27 10:16:51;;;;;;;3.63;2.20;;;23.80;54.50;;;;;;5034638;28;20063;-61
2023/09/27 10:19:28;;;;;;;4.15;2.03;;;23.80;54.50;;;;;;5031695;28;20029;-62
2023/09/27 10:22:08;;;;;;;3.08;1.95;;;23.80;54.50;;;;;;5051291;28;20501;-62
2023/09/27 10:24:36;;;;;;;3.33;2.00;;;23.80;54.50;;;;;;5053124;28;20032;-61
2023/09/27 10:27:02;;;;;;;2.92;1.83;;;23.80;54.50;;;;;;5053023;28;20344;-63
2023/09/27 10:29:29;;;;;;;3.25;2.35;;;23.80;54.50;;;;;;5035346;28;20021;-62
2023/09/27 10:31:57;;;;;;;3.70;2.28;;;23.90;54.60;;;;;;5053041;28;20021;-62
2023/09/27 10:34:29;;;;;;;3.53;2.30;;;23.90;54.60;;;;;;5052809;28;20060;-64
2023/09/27 10:37:00;;;;;;;2.35;1.90;;;23.90;54.60;;;;;;5052194;28;20115;-65
2023/09/27 10:39:29;;;;;;;2.78;2.17;;;23.90;54.60;;;;;;5050532;28;20037;-64
2023/09/27 10:41:55;;;;;;;4.32;1.65;;;23.90;54.70;;;;;;5053121;28;20036;-67
2023/09/27 10:44:36;;;;;;;2.92;1.92;;;23.90;55.30;;;;;;5050626;28;20278;-61
2023/09/27 10:47:04;;;;;;;3.70;1.73;;;23.90;54.60;;;;;;5034841;28;20045;-62
2023/09/27 10:49:38;;;;;;;3.00;1.80;;;24.00;54.70;;;;;;5052622;28;20040;-62
2023/09/27 10:52:21;;;;;;;2.33;1.80;;;23.90;54.60;;;;;;5028928;28;20021;-61
2023/09/27 10:54:48;;;;;;;2.00;1.60;;;23.90;54.60;;;;;;5032866;28;20040;-64
2023/09/27 10:57:14;;;;;;;2.60;1.77;;;24.00;54.60;;;;;;5046747;28;20044;-62
2023/09/27 10:59:41;;;;;;;2.30;1.58;;;24.00;54.60;;;;;;5049836;28;20116;-63
2023/09/27 11:02:07;;;;;;;3.35;1.83;;;24.00;54.60;;;;;;5052114;28;20036;-65
2023/09/27 11:04:35;;;;;;;2.67;1.98;;;24.00;54.60;;;;;;5052541;28;20448;-62
2023/09/27 11:07:03;;;;;;;2.63;1.83;;;24.10;54.70;;;;;;5050643;28;20047;-64
2023/09/27 11:09:29;;;;;;;3.17;1.60;;;24.00;54.70;;;;;;5022660;28;20044;-63
2023/09/27 11:11:57;;;;;;;2.05;1.63;;;24.10;54.70;;;;;;5033118;28;20298;-62
2023/09/27 11:14:25;;;;;;;2.05;1.60;;;24.10;55.30;;;;;;5016180;28;20414;-58
2023/09/27 11:16:52;;;;;;;3.38;1.73;;;24.10;54.70;;;;;;5049372;28;20127;-62
2023/09/27 11:19:31;;;;;;;3.38;2.20;;;24.10;54.60;;;;;;5023420;28;20091;-61
2023/09/27 11:21:57;;;;;;;2.40;1.75;;;24.10;54.60;;;;;;5045541;28;20037;-61
2023/09/27 11:24:24;;;;;;;3.10;2.00;;;24.10;54.50;;;;;;5013857;28;20044;-61
2023/09/27 11:26:50;;;;;;;4.40;1.55;;;24.10;54.40;;;;;;5049870;28;20471;-61
2023/09/27 11:29:23;;;;;;;3.53;1.95;;;24.20;54.40;;;;;;5046052;28;20039;-62
2023/09/27 11:31:56;;;;;;;2.10;1.50;;;24.20;54.30;;;;;;5031037;28;20029;-59
2023/09/27 11:34:22;;;;;;;5.82;2.20;;;24.20;54.10;;;;;;5000546;28;20054;-63
2023/09/27 11:36:54;;;;;;;2.88;1.70;;;24.20;54.10;;;;;;5001160;28;20502;-62
2023/09/27 11:39:28;;;;;;;4.30;1.75;;;24.20;54.00;;;;;;4999854;28;20072;-62
2023/09/27 11:41:58;;;;;;;3.08;1.77;;;24.20;53.90;;;;;;5007247;28;20030;-59
2023/09/27 11:44:26;;;;;;;2.45;1.73;;;24.30;54.00;;;;;;4996622;28;20036;-61
2023/09/27 11:47:06;;;;;;;2.58;1.77;;;24.30;53.90;;;;;;4998113;28;20092;-54
2023/09/27 11:49:33;;;;;;;1.88;1.48;;;24.30;53.90;;;;;;4997608;28;20105;-57
2023/09/27 11:52:01;;;;;;;2.63;1.90;;;24.30;53.90;;;;;;4995974;28;20049;-59
2023/09/27 11:54:28;;;;;;;2.47;1.83;;;24.30;53.90;;;;;;5006971;28;20121;-56
2023/09/27 11:56:54;;;;;;;2.53;1.92;;;24.30;54.50;;;;;;4992779;28;20036;-59
2023/09/27 11:59:20;;;;;;;3.03;1.67;;;24.30;53.90;;;;;;4995076;28;20117;-55
2023/09/27 12:01:46;;;;;;;3.30;2.00;;;24.30;53.90;;;;;;5008296;28;20053;-57
2023/09/27 12:04:12;;;;;;;1.85;1.63;;;24.40;53.90;;;;;;4999832;28;20109;-56
2023/09/27 12:06:38;;;;;;;3.53;1.90;;;24.40;53.90;;;;;;5005791;28;20041;-60
2023/09/27 12:09:05;;;;;;;3.25;1.95;;;24.40;53.80;;;;;;5000967;28;20117;-61
2023/09/27 12:11:31;;;;;;;2.95;1.80;;;24.40;53.70;;;;;;5007606;28;20042;-62
2023/09/27 12:13:57;;;;;;;2.40;1.42;;;24.40;53.60;;;;;;5007585;28;20022;-57
2023/09/27 12:16:24;;;;;;;2.50;1.77;;;24.40;53.60;;;;;;5006481;28;20029;-60
2023/09/27 12:18:50;;;;;;;2.72;1.65;;;24.50;53.60;;;;;;5006023;28;20448;-60
2023/09/27 12:21:16;;;;;;;2.40;1.60;;;24.50;53.40;;;;;;5006780;28;20042;-60
2023/09/27 12:23:44;;;;;;;2.13;1.67;;;24.50;53.30;;;;;;5007855;28;20041;-60
2023/09/27 12:26:10;;;;;;;2.60;1.90;;;24.50;53.20;;;;;;5007383;28;20048;-58
2023/09/27 12:28:37;;;;;;;2.10;1.60;;;24.50;53.10;;;;;;5008705;28;20104;-61
2023/09/27 12:31:06;;;;;;;2.08;1.70;;;24.60;53.10;;;;;;5006767;28;20045;-59
2023/09/27 12:33:33;;;;;;;2.30;1.67;;;24.60;52.90;;;;;;5023892;28;20417;-59
2023/09/27 12:35:59;;;;;;;2.53;1.60;;;24.60;52.80;;;;;;5028812;28;20123;-58
2023/09/27 12:38:26;;;;;;;2.70;1.95;;;24.60;53.30;;;;;;5047433;28;20108;-55
2023/09/27 12:40:52;;;;;;;2.50;1.60;;;24.60;52.50;;;;;;5046535;28;20405;-57
2023/09/27 12:43:18;;;;;;;3.42;1.73;;;24.60;52.40;;;;;;5043266;28;20431;-56
2023/09/27 12:45:44;;;;;;;2.40;1.73;;;24.60;52.80;;;;;;5050016;28;20086;-60
2023/09/27 12:48:10;;;;;;;2.40;1.60;;;24.60;52.00;;;;;;5027499;28;20033;-60
2023/09/27 12:50:40;;;;;;;2.58;1.63;;;24.60;51.90;;;;;;5046911;28;20051;-59